Time,TemperatureF,DewpointF,PressureIn,WindDirection,WindDirectionDegrees,WindSpeedMPH,WindSpeedGustMPH,Humidity,HourlyPrecipIn,Conditions,Clouds,dailyrainin,SoftwareType,DateUTC
2013-09-08 00:00:00,73.9,67.0,29.93,SSE,148,1.0,3.0,79,0.00,,,0.00,weatherlink.com 1.10,2013-09-08 04:00:00,
2013-09-08 00:14:00,73.6,67.0,29.93,ESE,119,0.0,2.0,80,0.00,,,0.00,weatherlink.com 1.10,2013-09-08 04:14:00,
2013-09-08 00:29:00,74.1,67.0,29.93,ESE,119,0.0,4.0,79,0.00,,,0.00,weatherlink.com 1.10,2013-09-08 04:29:00,
2013-09-08 00:45:00,74.3,67.0,29.93,SE,127,0.0,3.0,78,0.00,,,0.00,weatherlink.com 1.10,2013-09-08 04:45:00,
2013-09-08 01:00:00,74.5,67.0,29.93,SE,127,0.0,1.0,78,0.00,,,0.00,weatherlink.com 1.10,2013-09-08 05:00:00,
2013-09-08 01:15:00,74.5,67.0,29.93,SE,127,0.0,1.0,78,0.00,,,0.00,weatherlink.com 1.10,2013-09-08 05:15:00,
2013-09-08 01:30:00,74.6,67.0,29.94,SE,127,0.0,1.0,78,0.00,,,0.00,weatherlink.com 1.10,2013-09-08 05:30:00,
2013-09-08 01:45:00,74.9,68.0,29.93,SE,127,0.0,1.0,79,0.00,,,0.00,weatherlink.com 1.10,2013-09-08 05:45:00,
2013-09-08 02:00:00,74.0,68.0,29.94,SE,128,0.0,2.0,81,0.00,,,0.00,weatherlink.com 1.10,2013-09-08 06:00:00,
2013-09-08 02:16:00,73.9,68.0,29.93,SE,128,0.0,1.0,82,0.00,,,0.00,weatherlink.com 1.10,2013-09-08 06:16:00,
2013-09-08 02:30:00,73.2,67.0,29.93,SE,128,1.0,4.0,82,0.00,,,0.00,weatherlink.com 1.10,2013-09-08 06:30:00,
2013-09-08 02:45:00,73.0,67.0,29.93,SE,128,0.0,2.0,82,0.00,,,0.00,weatherlink.com 1.10,2013-09-08 06:45:00,
2013-09-08 03:00:00,72.9,68.0,29.93,SE,128,0.0,2.0,83,0.00,,,0.00,weatherlink.com 1.10,2013-09-08 07:00:00,
2013-09-08 03:15:00,72.6,68.0,29.93,SE,128,1.0,3.0,84,0.00,,,0.00,weatherlink.com 1.10,2013-09-08 07:15:00,
2013-09-08 03:30:00,72.3,68.0,29.93,SE,129,1.0,2.0,85,0.00,,,0.00,weatherlink.com 1.10,2013-09-08 07:30:00,
2013-09-08 03:45:00,72.1,67.0,29.92,SE,126,0.0,5.0,84,0.00,,,0.00,weatherlink.com 1.10,2013-09-08 07:45:00,
2013-09-08 04:00:00,72.0,67.0,29.93,ESE,111,0.0,3.0,85,0.00,,,0.00,weatherlink.com 1.10,2013-09-08 08:00:00,
2013-09-08 04:15:00,71.8,67.0,29.93,ESE,111,1.0,3.0,85,0.00,,,0.00,weatherlink.com 1.10,2013-09-08 08:15:00,
2013-09-08 04:45:00,71.1,67.0,29.93,ESE,111,3.0,3.0,86,0.00,,,0.00,weatherlink.com 1.10,2013-09-08 08:45:00,
2013-09-08 05:00:00,70.8,67.0,29.93,SE,130,1.0,4.0,86,0.00,,,0.00,weatherlink.com 1.10,2013-09-08 09:00:00,
2013-09-08 05:15:00,70.4,67.0,29.93,South,179,0.0,2.0,88,0.00,,,0.00,weatherlink.com 1.10,2013-09-08 09:15:00,
2013-09-08 05:30:00,70.2,67.0,29.93,SSE,157,0.0,2.0,88,0.00,,,0.00,weatherlink.com 1.10,2013-09-08 09:30:00,
2013-09-08 05:45:00,69.9,67.0,29.93,SSE,157,1.0,2.0,89,0.00,,,0.00,weatherlink.com 1.10,2013-09-08 09:45:00,
2013-09-08 06:00:00,69.6,66.0,29.93,SSE,157,0.0,2.0,89,0.00,,,0.00,weatherlink.com 1.10,2013-09-08 10:00:00,
2013-09-08 06:15:00,69.4,66.0,29.93,SSE,157,0.0,1.0,89,0.00,,,0.00,weatherlink.com 1.10,2013-09-08 10:15:00,
2013-09-08 06:30:00,69.3,66.0,29.93,SSE,157,0.0,2.0,90,0.00,,,0.00,weatherlink.com 1.10,2013-09-08 10:30:00,
2013-09-08 06:45:00,69.0,66.0,29.93,SSE,158,0.0,3.0,90,0.00,,,0.00,weatherlink.com 1.10,2013-09-08 10:45:00,
2013-09-08 07:00:00,68.9,66.0,29.93,SSE,158,1.0,3.0,90,0.00,,,0.00,weatherlink.com 1.10,2013-09-08 11:00:00,
2013-09-08 07:15:00,68.7,66.0,29.94,SE,146,2.0,5.0,90,0.00,,,0.00,weatherlink.com 1.10,2013-09-08 11:15:00,
2013-09-08 07:30:00,68.6,66.0,29.94,SE,142,0.0,1.0,90,0.00,,,0.00,weatherlink.com 1.10,2013-09-08 11:30:00,
2013-09-08 07:45:00,68.5,66.0,29.94,SE,142,0.0,2.0,91,0.00,,,0.00,weatherlink.com 1.10,2013-09-08 11:45:00,
2013-09-08 08:00:00,68.6,66.0,29.95,SE,142,1.0,1.0,91,0.00,,,0.00,weatherlink.com 1.10,2013-09-08 12:00:00,
2013-09-08 08:15:00,68.8,66.0,29.95,SE,142,0.0,3.0,90,0.00,,,0.00,weatherlink.com 1.10,2013-09-08 12:15:00,
2013-09-08 08:30:00,69.1,66.0,29.95,SE,140,0.0,5.0,90,0.00,,,0.00,weatherlink.com 1.10,2013-09-08 12:30:00,
2013-09-08 08:45:00,69.7,66.0,29.95,SE,142,0.0,4.0,89,0.00,,,0.00,weatherlink.com 1.10,2013-09-08 12:45:00,
2013-09-08 09:00:00,70.7,67.0,29.95,SE,142,1.0,3.0,87,0.00,,,0.00,weatherlink.com 1.10,2013-09-08 13:00:00,
2013-09-08 09:15:00,72.3,68.0,29.96,SE,142,0.0,2.0,85,0.00,,,0.00,weatherlink.com 1.10,2013-09-08 13:15:00,
2013-09-08 09:30:00,73.8,68.0,29.95,SE,142,0.0,2.0,82,0.00,,,0.00,weatherlink.com 1.10,2013-09-08 13:30:00,
2013-09-08 09:45:00,76.0,68.0,29.95,SE,142,0.0,1.0,77,0.00,,,0.00,weatherlink.com 1.10,2013-09-08 13:45:00,
2013-09-08 10:00:00,77.8,69.0,29.95,SE,142,0.0,2.0,74,0.00,,,0.00,weatherlink.com 1.10,2013-09-08 14:00:00,
2013-09-08 10:15:00,79.5,69.0,29.95,SE,142,0.0,1.0,71,0.00,,,0.00,weatherlink.com 1.10,2013-09-08 14:15:00,
2013-09-08 10:31:00,81.4,69.0,29.95,SE,142,0.0,2.0,66,0.00,,,0.00,weatherlink.com 1.10,2013-09-08 14:31:00,
2013-09-08 10:46:00,79.9,69.0,29.95,SE,142,1.0,2.0,69,0.00,,,0.00,weatherlink.com 1.10,2013-09-08 14:46:00,
2013-09-08 11:02:00,80.4,69.0,29.94,SE,142,0.0,2.0,68,0.00,,,0.00,weatherlink.com 1.10,2013-09-08 15:02:00,
2013-09-08 11:16:00,81.8,68.0,29.94,NW,311,0.0,4.0,64,0.00,,,0.00,weatherlink.com 1.10,2013-09-08 15:16:00,
2013-09-08 11:31:00,82.6,69.0,29.94,West,261,2.0,7.0,63,0.00,,,0.00,weatherlink.com 1.10,2013-09-08 15:31:00,
2013-09-08 11:46:00,84.3,69.0,29.94,West,261,1.0,4.0,60,0.00,,,0.00,weatherlink.com 1.10,2013-09-08 15:46:00,
2013-09-08 12:01:00,84.1,69.0,29.94,SW,232,3.0,5.0,60,0.00,,,0.00,weatherlink.com 1.10,2013-09-08 16:01:00,
2013-09-08 12:16:00,83.9,68.0,29.93,West,265,0.0,5.0,60,0.00,,,0.00,weatherlink.com 1.10,2013-09-08 16:16:00,
2013-09-08 12:31:00,87.1,68.0,29.93,West,265,0.0,2.0,54,0.00,,,0.00,weatherlink.com 1.10,2013-09-08 16:31:00,
2013-09-08 12:46:00,86.6,68.0,29.93,NW,317,4.0,6.0,54,0.00,,,0.00,weatherlink.com 1.10,2013-09-08 16:46:00,
2013-09-08 13:01:00,86.5,67.0,29.93,SSW,207,0.0,5.0,53,0.00,,,0.00,weatherlink.com 1.10,2013-09-08 17:01:00,
2013-09-08 13:16:00,86.6,68.0,29.93,SSE,150,1.0,7.0,54,0.00,,,0.00,weatherlink.com 1.10,2013-09-08 17:16:00,
2013-09-08 13:31:00,86.8,67.0,29.93,WSW,252,3.0,6.0,51,0.00,,,0.00,weatherlink.com 1.10,2013-09-08 17:31:00,
2013-09-08 13:46:00,86.8,67.0,29.93,SSW,200,3.0,6.0,51,0.00,,,0.00,weatherlink.com 1.10,2013-09-08 17:46:00,
2013-09-08 14:01:00,87.9,67.0,29.92,NE,47,2.0,4.0,50,0.00,,,0.00,weatherlink.com 1.10,2013-09-08 18:01:00,
2013-09-08 14:16:00,87.9,66.0,29.93,WSW,250,4.0,6.0,48,0.00,,,0.00,weatherlink.com 1.10,2013-09-08 18:16:00,
2013-09-08 14:31:00,88.6,66.0,29.92,West,271,0.0,6.0,47,0.00,,,0.00,weatherlink.com 1.10,2013-09-08 18:31:00,
2013-09-08 14:46:00,88.5,66.0,29.92,WNW,291,2.0,5.0,47,0.00,,,0.00,weatherlink.com 1.10,2013-09-08 18:46:00,
2013-09-08 15:01:00,90.1,67.0,29.91,NNE,32,0.0,6.0,46,0.00,,,0.00,weatherlink.com 1.10,2013-09-08 19:01:00,
2013-09-08 15:16:00,89.6,65.0,29.91,South,183,2.0,8.0,44,0.00,,,0.00,weatherlink.com 1.10,2013-09-08 19:16:00,
2013-09-08 15:31:00,89.5,65.0,29.91,WSW,244,2.0,6.0,45,0.00,,,0.00,weatherlink.com 1.10,2013-09-08 19:31:00,
2013-09-08 15:46:00,90.5,66.0,29.90,SW,231,0.0,5.0,44,0.00,,,0.00,weatherlink.com 1.10,2013-09-08 19:46:00,
2013-09-08 16:01:00,90.8,65.0,29.90,South,175,4.0,7.0,43,0.00,,,0.00,weatherlink.com 1.10,2013-09-08 20:01:00,
2013-09-08 16:16:00,90.1,65.0,29.89,WNW,291,1.0,7.0,43,0.00,,,0.00,weatherlink.com 1.10,2013-09-08 20:16:00,
2013-09-08 16:31:00,91.1,65.0,29.89,West,275,0.0,6.0,42,0.00,,,0.00,weatherlink.com 1.10,2013-09-08 20:31:00,
2013-09-08 16:46:00,91.3,65.0,29.89,SSE,154,2.0,5.0,42,0.00,,,0.00,weatherlink.com 1.10,2013-09-08 20:46:00,
2013-09-08 17:01:00,91.5,65.0,29.89,NW,321,2.0,6.0,42,0.00,,,0.00,weatherlink.com 1.10,2013-09-08 21:01:00,
2013-09-08 17:16:00,90.9,65.0,29.89,West,259,3.0,5.0,43,0.00,,,0.00,weatherlink.com 1.10,2013-09-08 21:16:00,
2013-09-08 17:31:00,90.2,65.0,29.88,WSW,240,1.0,6.0,44,0.00,,,0.00,weatherlink.com 1.10,2013-09-08 21:31:00,
2013-09-08 17:46:00,90.0,65.0,29.89,West,261,3.0,5.0,44,0.00,,,0.00,weatherlink.com 1.10,2013-09-08 21:46:00,
2013-09-08 18:01:00,88.6,65.0,29.89,SW,223,3.0,5.0,46,0.00,,,0.00,weatherlink.com 1.10,2013-09-08 22:01:00,
2013-09-08 18:16:00,89.2,66.0,29.89,SW,223,1.0,4.0,47,0.00,,,0.00,weatherlink.com 1.10,2013-09-08 22:16:00,
2013-09-08 18:31:00,89.0,65.0,29.89,SW,223,1.0,2.0,45,0.00,,,0.00,weatherlink.com 1.10,2013-09-08 22:31:00,
2013-09-08 18:46:00,89.0,66.0,29.89,SW,223,0.0,2.0,47,0.00,,,0.00,weatherlink.com 1.10,2013-09-08 22:46:00,
2013-09-08 19:01:00,89.5,67.0,29.89,SW,223,0.0,1.0,47,0.00,,,0.00,weatherlink.com 1.10,2013-09-08 23:01:00,
2013-09-08 19:17:00,89.7,66.0,29.88,SSE,155,0.0,2.0,46,0.00,,,0.00,weatherlink.com 1.10,2013-09-08 23:17:00,
2013-09-08 19:32:00,87.8,68.0,29.89,South,176,0.0,1.0,52,0.00,,,0.00,weatherlink.com 1.10,2013-09-08 23:32:00,
2013-09-08 19:47:00,86.3,68.0,29.89,South,176,0.0,1.0,55,0.00,,,0.00,weatherlink.com 1.10,2013-09-08 23:47:00,
2013-09-08 20:02:00,84.8,68.0,29.89,South,176,1.0,2.0,58,0.00,,,0.00,weatherlink.com 1.10,2013-09-09 00:02:00,
2013-09-08 20:17:00,83.7,69.0,29.90,South,175,0.0,1.0,61,0.00,,,0.00,weatherlink.com 1.10,2013-09-09 00:17:00,
2013-09-08 20:32:00,82.6,69.0,29.90,ESE,104,0.0,3.0,63,0.00,,,0.00,weatherlink.com 1.10,2013-09-09 00:32:00,
2013-09-08 20:47:00,81.8,69.0,29.91,ESE,104,0.0,1.0,66,0.00,,,0.00,weatherlink.com 1.10,2013-09-09 00:47:00,
2013-09-08 21:02:00,80.6,70.0,29.91,SSE,164,1.0,2.0,69,0.00,,,0.00,weatherlink.com 1.10,2013-09-09 01:02:00,
2013-09-08 21:17:00,79.6,69.0,29.91,SSE,164,0.0,1.0,70,0.00,,,0.00,weatherlink.com 1.10,2013-09-09 01:17:00,
2013-09-08 21:32:00,79.3,69.0,29.92,SSE,164,0.0,2.0,70,0.00,,,0.00,weatherlink.com 1.10,2013-09-09 01:32:00,
2013-09-08 21:47:00,79.4,69.0,29.93,NNE,30,0.0,5.0,71,0.00,,,0.00,weatherlink.com 1.10,2013-09-09 01:47:00,
2013-09-08 22:02:00,79.4,69.0,29.93,ENE,62,2.0,7.0,71,0.00,,,0.00,weatherlink.com 1.10,2013-09-09 02:02:00,
2013-09-08 22:17:00,79.2,69.0,29.93,North,350,0.0,8.0,71,0.00,,,0.00,weatherlink.com 1.10,2013-09-09 02:17:00,
2013-09-08 22:32:00,79.1,69.0,29.93,NE,54,0.0,2.0,71,0.00,,,0.00,weatherlink.com 1.10,2013-09-09 02:32:00,
2013-09-08 22:47:00,78.8,69.0,29.94,WSW,255,2.0,3.0,71,0.00,,,0.00,weatherlink.com 1.10,2013-09-09 02:47:00,
2013-09-08 23:02:00,78.6,69.0,29.95,NW,325,2.0,3.0,72,0.00,,,0.00,weatherlink.com 1.10,2013-09-09 03:02:00,
2013-09-08 23:17:00,78.3,69.0,29.95,NNW,331,0.0,5.0,72,0.00,,,0.00,weatherlink.com 1.10,2013-09-09 03:17:00,
2013-09-08 23:32:00,78.0,69.0,29.96,NNW,333,0.0,5.0,73,0.00,,,0.00,weatherlink.com 1.10,2013-09-09 03:32:00,
2013-09-08 23:47:00,77.6,68.0,29.95,NNW,333,0.0,1.0,73,0.00,,,0.00,weatherlink.com 1.10,2013-09-09 03:47:00,